Weather observations for the past three days for
Ranger
Metric (Imperial)
Date Time (cdt) Wind (kph) Vis. (km) Weather Sky Cond. Temperature (ºC) Relative Humidity Wind Chill (°C) Heat Index (°C) Pressure Precipitation (cm)
Air Dwpt 6 hour altimeter (cm) sea level (mb) 1 hr 3 hr 6 hr
Max. Min.
06 06:15 SW 6 16.09 NULL NULL 23.4 19.8 80% 76.07 0.0
06 05:55 SW 7 16.09 NULL NULL 23.2 19.7 81% 76.07 0.0
06 05:35 SW 6 16.09 NULL NULL 23.1 19.6 81% 76.07 0.0
06 05:15 Calm 16.09 NULL NULL 23.4 19.5 79% 76.07 0.0
06 04:55 S 7 16.09 NULL NULL 24.3 19.6 75% 25 76.07 0.0
06 04:35 S 7 16.09 NULL NULL 24.2 19.6 76% 25 76.05 0.0
06 04:15 S 7 16.09 NULL NULL 25 19.6 72% 26 76.05 0.0
06 03:55 S 9 16.09 NULL NULL 25.1 19.6 72% 26 76.05 0.0
06 03:35 S 7 16.09 NULL NULL 25.3 19.5 70% 26 76.05 0.0
06 03:15 S 7 16.09 NULL NULL 25.5 19.5 70% 27 76.05 0.0
06 02:55 S 7 16.09 NULL NULL 25.8 19.5 68% 27 76.05 0.0
06 02:35 S 7 16.09 NULL NULL 26.1 19.5 67% 27 76.05 0.0
06 02:15 S 9 16.09 NULL NULL 26.5 19.5 65% 28 76.05 0.0
06 01:55 S 7 16.09 NULL NULL 26.6 19.5 65% 28 76.07 0.0
06 01:35 S 7 16.09 NULL NULL 26.8 19.5 64% 28 76.07 0.0
06 01:15 S 9 16.09 NULL NULL 26.9 19.6 64% 28 76.1 0.0
06 00:55 S 9 16.09 NULL NULL 27.4 19.7 34.9 27.3 63% 29 76.12 0.0
06 00:35 S 9 16.09 NULL NULL 27.5 19.7 63% 29 76.12 0.0
06 00:15 S 11 16.09 NULL NULL 28 19.7 61% 30 76.1 0.0
05 23:55 S 11 16.09 NULL NULL 28 19.7 61% 30 76.1 0.0
05 23:35 S 13 16.09 NULL NULL 28.6 19.7 59% 30 76.1 0.0
05 23:15 S 13 16.09 NULL NULL 28.8 19.5 57% 30 76.1 0.0
05 22:55 S 11 16.09 NULL NULL 29 19.2 56% 30 76.07 0.0
05 22:35 SE 11 16.09 NULL NULL 28.9 18.1 52% 30 76.07 0.0
05 22:15 SE 7 16.09 NULL NULL 28.4 17.4 51% 29 76.05 0.0
05 21:55 SE 7 16.09 NULL NULL 29.1 17.2 49% 30 76.05 0.0
05 21:35 SE 9 16.09 NULL NULL 29.5 17 47% 30 76.02 0.0
05 21:15 SE 7 16.09 NULL NULL 29.6 17 47% 30 76 0.0
05 20:55 SE 7 16.09 NULL NULL 30.2 16.8 44% 31 75.97 0.0
05 20:35 SE 7 16.09 NULL NULL 29.7 17 46% 30 75.97 0.0
05 20:15 SE 7 16.09 NULL NULL 30.9 16.5 42% 31 75.95 0.0
05 19:55 SE 7 16.09 NULL NULL 32.2 16.1 38% 32 75.95 0.0
05 19:35 SE 9 16.09 NULL NULL 33.3 15.8 35% 33 75.92 0.0
05 19:15 SE 11 16.09 NULL NULL 34.4 15.3 32% 34 75.92 0.0
05 18:55 SE 17 16.09 NULL NULL 35 15.2 37.1 33.5 30% 35 75.92 0.0
05 18:35 SE 17 16.09 NULL NULL 35.5 15.1 29% 35 75.9 0.0
05 18:15 E 17 16.09 NULL NULL 36 15.3 29% 36 75.9 0.0
05 17:55 SE 17 G 26 16.09 NULL NULL 36.2 15.2 28% 36 75.9 0.0
05 17:35 S 6 16.09 NULL NULL 36 15 28% 36 75.9 0.0
05 17:15 SE 11 16.09 NULL NULL 36.2 15.7 29% 36 75.9 0.0
05 16:55 S 15 16.09 NULL NULL 36.1 15.8 30% 36 75.92 0.0
05 16:35 S 13 16.09 NULL NULL 36.9 15.9 29% 37 75.92 0.0
05 16:15 E 9 G 28 16.09 NULL NULL 36.6 16.3 30% 37 75.95 0.0
05 15:55 S 7 16.09 NULL NULL 37.1 16.6 30% 38 75.95 0.0
05 15:35 E 15 16.09 NULL NULL 36.5 16.6 31% 37 75.97 0.0
05 15:15 SW 15 16.09 NULL NULL 35.9 16.8 32% 37 76 0.0
05 14:55 S 15 16.09 NULL NULL 35.8 16.7 32% 36 76.02 0.0
05 12:55 S 11 16.09 NULL NULL 34.3 17.3 34.4 21.6 36% 35 76.17 0.0
05 12:35 S 11 16.09 NULL NULL 34.3 17.4 37% 35 76.17 0.0
05 12:15 S 7 16.09 NULL NULL 33.1 17.2 39% 34 76.2 0.0
05 11:55 SW 9 16.09 NULL NULL 32.8 17.6 40% 34 76.2 0.0
05 11:35 SW 9 16.09 NULL NULL 32.2 18 43% 33 76.2 0.0
05 11:15 S 11 16.09 NULL NULL 32.2 17.8 42% 33 76.2 0.0
05 10:55 W 9 16.09 NULL NULL 31.5 17.2 42% 32 76.2 0.0
05 10:35 S 7 16.09 NULL NULL 30.7 18.4 48% 32 76.2 0.0
05 10:15 SW 7 16.09 NULL NULL 30.1 18.5 50% 31 76.2 0.0
05 09:55 SW 7 16.09 NULL NULL 28.7 21.1 64% 31 76.2 0.0
05 09:35 SW 11 16.09 NULL NULL 27.9 21.2 67% 30 76.2 0.0
05 09:15 SW 9 16.09 NULL NULL 26.8 21.4 72% 29 76.2 0.0
05 08:55 SW 11 16.09 NULL NULL 26 21.5 76% 28 76.2 0.0
05 08:35 S 7 16.09 NULL NULL 24.9 21.5 81% 26 76.17 0.0
05 08:15 S 6 16.09 NULL NULL 23.8 21.2 85% 76.17 0.0
05 07:55 Calm 16.09 NULL NULL 22.7 21 90% 76.17 0.0
05 07:35 Calm 16.09 NULL NULL 21.9 20.5 92% 76.15 0.0
05 07:15 SW 6 16.09 NULL NULL 21.7 20.5 93% 76.12 0.0
05 06:55 S 6 16.09 NULL NULL 22.1 20.5 26.1 22.1 91% 76.12 0.0
05 06:35 S 7 16.09 NULL NULL 22.2 20.5 90% 76.12 0.0
05 06:15 SW 9 16.09 NULL NULL 22.2 20.5 90% 76.12 0.0
05 05:55 S 7 16.09 NULL NULL 22.4 20.5 89% 76.12 0.0
05 05:35 SW 7 16.09 NULL NULL 22.7 20.5 87% 76.12 0.0
05 05:15 SW 7 16.09 NULL NULL 23.1 20.5 85% 76.12 0.0
05 04:55 S 7 16.09 NULL NULL 23.2 20.5 85% 76.12 0.0
05 04:35 S 6 16.09 NULL NULL 23.2 20.5 85% 76.12 0.0
05 04:15 S 9 16.09 NULL NULL 23 20.5 86% 76.12 0.0
05 03:55 SW 6 16.09 NULL NULL 23.6 20.5 83% 76.1 0.0
05 03:35 S 6 16.09 NULL NULL 23.7 20.5 82% 76.12 0.0
05 03:15 S 6 16.09 NULL NULL 24.1 20.5 80% 24 76.12 0.0
05 02:55 S 6 16.09 NULL NULL 24.5 20.5 78% 25 76.12 0.0
05 02:35 S 9 16.09 NULL NULL 24.8 20.5 77% 26 76.12 0.0
05 02:15 S 9 16.09 NULL NULL 25.2 20.5 75% 26 76.12 0.0
05 01:55 S 11 16.09 NULL NULL 25.5 20.5 74% 27 76.12 0.0
05 01:35 S 13 16.09 NULL NULL 25.5 20.2 73% 27 76.12 0.0
05 01:15 S 13 16.09 NULL NULL 25.6 20 71% 27 76.12 0.0
05 00:55 S 13 16.09 NULL NULL 26.1 19.8 33.5 26.1 68% 27 76.12 0.0
05 00:35 S 15 16.09 NULL NULL 26.5 19.5 65% 28 76.12 0.0
05 00:15 S 15 16.09 NULL NULL 26.5 18.9 63% 28 76.12 0.0
04 23:55 S 17 16.09 NULL NULL 26.8 18.1 59% 28 76.12 0.0
04 23:35 S 11 16.09 NULL NULL 27.1 18 58% 28 76.12 0.0
04 23:15 S 15 16.09 NULL NULL 27.5 18.6 58% 29 76.12 0.0
04 22:55 S 9 16.09 NULL NULL 27.2 19.7 64% 29 76.1 0.0
04 22:35 S 9 16.09 NULL NULL 27.5 20 64% 29 76.1 0.0
04 22:15 S 6 16.09 NULL NULL 27.7 20.1 63% 29 76.07 0.0
04 21:55 S 6 16.09 NULL NULL 27.5 20.1 64% 29 76.07 0.0
04 21:35 S 7 16.09 NULL NULL 28.5 20 60% 30 76.05 0.0
04 21:15 S 6 16.09 NULL NULL 28.6 20 60% 30 76.02 0.0
04 20:55 S 6 16.09 NULL NULL 28.4 19.8 60% 30 76.02 0.0
04 20:35 S 6 16.09 NULL NULL 29.9 19.7 54% 32 76 0.0
04 20:15 SW 6 16.09 NULL NULL 30.7 19.6 52% 32 76 0.0
04 19:55 S 9 16.09 NULL NULL 31.6 19.5 49% 33 76 0.0
04 19:35 S 11 16.09 NULL NULL 32.4 19.3 46% 34 75.97 0.0
04 19:15 S 15 16.09 NULL NULL 33 19.1 44% 35 75.97 0.0
04 18:55 S 17 16.09 NULL NULL 33.5 18.8 35.7 32.7 42% 35 75.95 0.0
04 18:35 S 17 16.09 NULL NULL 34 18 39% 35 75.95 0.0
04 18:15 S 20 G 31 16.09 NULL NULL 34.1 17.9 38% 35 75.92 0.0
04 17:55 S 19 G 28 16.09 NULL NULL 34.7 18.1 37% 36 75.92 0.0
04 17:35 S 17 G 31 16.09 NULL NULL 34.5 18.5 39% 36 75.92 0.0
04 17:15 S 15 G 28 16.09 NULL NULL 34.9 18.1 37% 36 75.95 0.0
04 16:55 S 24 G 31 16.09 NULL NULL 34.9 18.6 38% 36 75.95 0.0
04 16:35 S 24 G 33 16.09 NULL NULL 35.4 18.1 36% 37 75.95 0.0
04 16:15 S 17 G 30 16.09 NULL NULL 35.4 17.5 35% 36 75.97 0.0
04 15:55 SE 17 G 33 16.09 NULL NULL 35.6 17.7 35% 37 76 0.0
04 15:35 S 19 G 31 16.09 NULL NULL 35.5 18 35% 37 76.02 0.0
04 15:15 S 24 G 33 16.09 NULL NULL 35.1 18.3 37% 37 76.02 0.0
04 14:55 S 22 G 30 16.09 NULL NULL 35.4 19 38% 37 76.05 0.0
04 14:35 S 15 G 26 16.09 NULL NULL 34.9 19.3 40% 37 76.07 0.0
04 14:15 S 20 G 31 16.09 NULL NULL 34.4 19.2 41% 36 76.07 0.0
04 13:55 S 24 G 30 16.09 NULL NULL 34 19.7 43% 36 76.07 0.0
04 13:35 S 20 G 39 16.09 NULL NULL 33.5 20 45% 36 76.1 0.0
04 13:15 S 22 G 30 16.09 NULL NULL 33.1 20.8 48% 36 76.12 0.0
04 12:55 S 22 G 33 16.09 NULL NULL 32.9 21.5 32.9 24.5 51% 36 76.12 0.0
04 12:35 S 19 G 30 16.09 NULL NULL 32.2 21.8 54% 36 76.15 0.0
04 12:15 S 20 G 30 16.09 NULL NULL 31.9 22.1 56% 36 76.17 0.0
04 11:55 S 19 G 28 16.09 NULL NULL 30.3 21.9 61% 34 76.17 0.0
04 11:35 S 22 G 28 16.09 NULL NULL 30.1 21.9 62% 33 76.17 0.0
04 11:15 S 15 16.09 NULL NULL 29.8 21.9 63% 33 76.2 0.0
04 10:55 S 19 16.09 NULL NULL 29.9 21.8 62% 33 76.2 0.0
04 10:35 S 20 G 31 16.09 NULL NULL 28.8 21.6 65% 31 76.17 0.0
04 10:15 S 24 16.09 NULL NULL 28 21.5 68% 30 76.17 0.0
04 09:55 S 20 G 31 16.09 NULL NULL 27.6 21.8 71% 30 76.17 0.0
04 09:35 S 22 G 31 16.09 Light Rain NULL 26.8 21.9 75% 29 76.15 0.0
04 09:15 S 17 G 30 16.09 NULL NULL 26.1 22.2 79% 28 76.15 0.0
04 08:55 S 17 G 26 16.09 NULL NULL 25.2 22 83% 26 76.15 0.0
04 08:35 S 17 16.09 NULL NULL 25 22 83% 26 76.15 0.0
04 08:15 S 19 16.09 NULL NULL 24.8 21.8 83% 25 76.15 0.0
04 07:55 S 20 G 28 16.09 NULL NULL 24.7 21.7 83% 25 76.12 0.0
04 07:35 S 15 16.09 NULL NULL 24.7 21.6 83% 25 76.1 0.0
04 07:15 S 19 16.09 NULL NULL 24.6 21.5 83% 25 76.07 0.0
04 06:55 S 17 16.09 NULL NULL 24.5 21.5 26 24 83% 25 76.07 0.0
04 06:35 S 13 16.09 NULL NULL 24.5 21.5 83% 25 76.05 0.0
04 06:15 S 17 16.09 NULL NULL 24.5 21.5 83% 25 76.05 0.0
04 05:55 S 15 16.09 NULL NULL 24.2 21.5 85% 24 76.05 0.0
04 05:35 S 13 16.09 NULL NULL 24.1 21.5 85% 24 76.05 0.0
04 05:15 SE 15 16.09 NULL NULL 24.1 21.4 85% 24 76.05 0.0
04 04:55 S 15 16.09 NULL NULL 24.2 21.3 84% 24 76.02 0.0
04 04:35 S 17 16.09 NULL NULL 24.3 21.3 83% 25 76.02 0.0
04 04:15 S 13 16.09 NULL NULL 24.3 21.2 83% 25 76 0.0
04 03:55 S 15 16.09 NULL NULL 24.5 21.2 82% 25 76.02 0.0
04 03:35 S 13 16.09 NULL NULL 24.5 21.1 81% 25 76.02 0.0
04 03:15 S 15 16.09 NULL NULL 24.7 21 80% 25 76.02 0.0
04 02:55 S 13 16.09 NULL NULL 25 21 79% 26 76.02 0.0
04 02:35 S 13 16.09 NULL NULL 25.1 21 78% 26 76.02 0.0
04 02:15 S 17 G 26 16.09 NULL NULL 25.3 21 77% 26 76.02 0.0
04 01:55 S 17 G 26 16.09 NULL NULL 25.5 21 76% 27 76.05 0.0
04 01:35 S 17 16.09 NULL NULL 25.6 21 76% 27 76.05 0.0
04 01:15 S 17 G 26 16.09 NULL NULL 26 21.1 74% 27 76.05 0.0
04 00:55 S 17 16.09 NULL NULL 26.1 21.1 35 26.1 74% 28 76.02 0.0
04 00:35 SE 17 G 28 16.09 NULL NULL 26.5 21.1 72% 28 76.02 0.0
04 00:15 SE 17 G 28 16.09 NULL NULL 26.6 21.1 72% 28 76.02 0.0
03 23:55 S 15 16.09 NULL NULL 26.7 21.3 72% 29 76.02 0.0
03 23:35 S 19 16.09 NULL NULL 27.2 21.7 72% 29 76 0.0
03 23:15 SE 19 16.09 NULL NULL 27.6 22.2 72% 30 76.02 0.0
03 22:55 SE 19 16.09 NULL NULL 27.8 22.7 74% 31 76 0.0
03 22:35 SE 17 G 28 16.09 NULL NULL 28.1 22.5 72% 31 76 0.0
03 22:15 SE 24 G 33 16.09 NULL NULL 28.5 22.4 70% 32 75.97 0.0
03 21:55 SE 17 16.09 NULL NULL 28.8 22.1 67% 32 75.97 0.0
03 21:35 S 22 G 33 16.09 NULL NULL 29.3 22.1 65% 32 75.95 0.0
03 21:15 SE 19 G 31 16.09 NULL NULL 29.8 22.2 64% 33 75.92 0.0
03 20:55 SE 22 G 30 16.09 NULL NULL 30.6 22.5 62% 34 75.9 0.0
03 20:35 SE 19 G 28 16.09 NULL NULL 31.5 21.9 57% 35 75.87 0.0
03 20:15 S 13 16.09 NULL NULL 32.1 20.6 51% 35 75.84 0.0
03 19:55 S 17 16.09 NULL NULL 32.6 20.6 49% 35 75.82 0.0
03 19:35 S 20 G 28 16.09 NULL NULL 33.6 20.3 46% 36 75.82 0.0
03 19:15 S 20 G 26 16.09 NULL NULL 34.5 20.5 44% 37 75.82 0.0
03 18:55 S 13 16.09 NULL NULL 35 20.1 38.8 28.3 42% 38 75.82 0.0 0.08 0.51
03 18:35 S 17 16.09 NULL NULL 35.5 19.5 39% 38 75.79 0.0 0.08
03 18:15 SE 19 G 26 16.09 NULL NULL 35.5 20 40% 38 75.79 0.0 0.05
03 17:55 S 19 G 33 16.09 NULL NULL 35.6 20.2 40% 39 75.79 0.0 0.23
03 17:35 S 20 16.09 NULL NULL 35.7 19.5 39% 38 75.77 0.0 0.15
03 17:15 SE 19 G 26 16.09 NULL NULL 35.4 20.3 41% 38 75.79 0.0 0.05
03 16:55 S 19 16.09 NULL NULL 35.3 20.4 42% 38 75.79 0.0 0.08
03 16:35 SW 6 16.09 NULL NULL 35 21 44% 38 75.79 0.0 0.05
03 16:15 Calm 16.09 NULL NULL 31.4 26.1 73% 40 75.82 0.0 0.03
03 15:55 SW 6 16.09 NULL NULL 28.7 24.6 79% 34 75.82 0.0 0.13 0.13
03 15:35 Calm 4.02 Heavy Rain NULL 28.4 21.3 65% 31 75.87 0.0 0.1
03 15:15 SW 13 G 28 16.09 NULL NULL 30.1 20.5 56% 32 75.87 0.0 0.05
03 14:55 NW 19 16.09 Rain NULL 30.6 20.8 56% 33 75.9 0.0
03 14:35 W 6 16.09 NULL NULL 37.3 17 30% 38 75.9 0.0
03 14:15 Calm 16.09 NULL NULL 37.1 17.3 31% 38 75.9 0.0
03 13:55 E 6 16.09 NULL NULL 37.3 17.8 32% 39 75.92 0.0
03 13:35 E 7 16.09 NULL NULL 37.6 18.5 33% 40 75.95 0.0
03 13:15 NE 7 16.09 NULL NULL 36.8 18.6 34% 39 75.97 0.0
03 12:55 SW 11 16.09 NULL NULL 36.8 19.1 36.8 21.4 35% 39 76.02 0.0
03 12:35 S 7 16.09 NULL NULL 35.4 19.3 39% 38 76.05 0.0
03 12:15 SW 7 16.09 NULL NULL 35.2 19.3 39% 37 76.07 0.0
03 11:55 SW 9 16.09 NULL NULL 34.4 19.4 41% 36 76.07 0.0
03 11:35 SW 11 16.09 NULL NULL 33.9 20.1 44% 36 76.07 0.0
03 11:15 S 7 16.09 NULL NULL 32.8 20.2 47% 35 76.07 0.0
03 10:55 SW 11 16.09 NULL NULL 32.1 20.3 50% 34 76.07 0.0
03 10:35 S 9 16.09 NULL NULL 30.7 20.6 55% 33 76.07 0.0
03 10:15 SW 11 16.09 NULL NULL 30 20.6 57% 32 76.07 0.0
03 09:55 S 9 16.09 NULL NULL 29.1 20.6 60% 31 76.07 0.0
03 09:35 S 9 16.09 NULL NULL 28.2 21 65% 30 76.07 0.0
03 09:15 S 7 16.09 NULL NULL 27.1 20.8 69% 29 76.07 0.0
03 08:55 S 7 16.09 NULL NULL 26.2 20.8 72% 28 76.1 0.0
03 08:35 E 6 16.09 NULL NULL 25.3 20.8 76% 26 76.1 0.0
03 08:15 Calm 16.09 NULL NULL 24.2 20.5 80% 25 76.07 0.0
03 07:55 Calm 16.09 NULL NULL 22.4 20.1 87% 76.07 0.0
03 07:35 Calm 16.09 NULL NULL 21.6 20 91% 76.07 0.0
03 07:15 Calm 16.09 NULL NULL 21.8 20 90% 76.05 0.0
03 06:55 SE 6 16.09 NULL NULL 21.9 20.1 27.5 21.6 90% 76.05 0.0
03 06:35 Calm 16.09 NULL NULL 22.5 20.2 87% 76.02 0.0
Date Time (cdt) Wind (kph) Vis. (km) Weather Sky Cond. Air Dwpt Max. Min. Relative Humidity Wind Chill (°C) Heat Index (°C) altimeter (cm) sea level (mb) 1 hr 3 hr 6 hr
6 hour
Temperature (ºC) Pressure Precipitation (cm)